Latest Coastal Weather Observations for Centre Island

IDD60701

Issued at 10:21 pm CST Wednesday 2 September 2015 (issued every 10 minutes, with the page automatically refreshed every 10 minutes)

About coastal observations | Map of coastal stations | Coastal observations for NT | Marine services | Other Formats
Station Details ID: 014703 Name: CENTRE ISLAND Lat: -15.74 Lon: 136.82 Height: 12.2 m
Data from the previous 72 hours. | See also: Recent months at Centre Island
Date/Time
CST
Temp

°C
Wind Pressure Rain
since 9am
mm
Weather Cloud Vis
km
Sea
Height
m
Swell
Dir
 
Speed
knots
Gust
knots
hPa Trend Height
m
Period
s
Dir
02/10:00pm 24.2 NNE 12 16 1015.0 - 0.2 - - - - - - -
02/09:30pm 24.3 NNE 12 16 1015.0 - 0.2 - - - - - - -
02/09:00pm 24.3 NNE 13 17 1014.7 - 0.2 - - - - - - -
02/08:30pm 24.5 NNE 14 19 1014.5 - 0.2 - - - - - - -
02/08:00pm 24.6 NNE 13 16 1014.2 - 0.2 - - - - - - -
02/07:30pm 24.8 NNE 11 14 1014.0 - 0.2 - - - - - - -
02/07:00pm 25.3 NNE 9 12 1013.7 - 0.2 - - - - - - -
02/06:30pm 25.6 N 6 8 1013.5 - 0.2 - - - - - - -
02/06:00pm 26.1 NE 8 11 1013.3 - 0.2 - - - - - - -
02/05:30pm 28.2 NNE 8 11 1013.1 - 0.2 - - - - - - -
02/05:00pm 30.2 NNW 7 11 1013.1 - 0.2 - - - - - - -
02/04:30pm 30.2 N 7 11 1012.9 - 0.2 - - - - - - -
02/04:00pm 30.1 N 10 14 1012.8 - 0.2 - - - - - - -
02/03:30pm 30.4 NNE 11 14 1012.7 - 0.2 - - - - - - -
02/03:00pm 30.9 NNE 13 16 1012.7 - 0.2 - - - - - - -
02/02:30pm 31.6 N 11 14 1013.1 - 0.2 - - - - - - -
02/02:00pm 32.5 NNW 10 15 1013.4 - 0.2 - - - - - - -
02/01:30pm 32.1 NNW 11 17 1013.9 - 0.2 - - - - - - -
02/01:00pm 31.5 NNW 11 15 1014.4 - 0.2 - - - - - - -
02/12:30pm 30.5 NNW 11 17 1014.8 - 0.2 - - - - - - -
02/12:00pm 30.9 N 12 17 1015.3 - 0.2 - - - - - - -
02/11:30am 31.0 NNW 11 15 1015.7 - 0.2 - - - - - - -
02/11:00am 30.5 NNW 10 15 1016.2 - 0.2 - - - - - - -
02/10:30am 30.5 NNW 9 14 1016.5 - 0.2 - - - - - - -
02/10:00am 29.4 NW 8 11 1016.7 - 0.2 - - - - - - -
02/09:30am 28.0 NW 10 14 1016.7 - 0.0 - - - - - - -
02/09:00am 26.4 NW 11 16 1016.6 - 0.0 - - - - - - -
02/08:30am 26.0 NNW 7 9 1016.0 - 0.0 - - - - - - -
02/08:00am 24.5 NW 4 6 1015.8 - 0.0 - - - - - - -
02/07:30am 22.9 NNW 4 5 1015.5 - 0.0 - - - - - - -
02/07:00am 21.7 NW 3 4 1015.0 - 0.0 - - - - - - -
02/06:30am 21.1 NNW 4 4 1014.6 - 0.0 - - - - - - -
02/06:00am 21.6 NNW 5 7 1014.1 - 0.0 - - - - - - -
02/05:30am 21.4 NNW 6 7 1013.9 - 0.0 - - - - - - -
02/05:00am 21.6 N 5 6 1013.6 - 0.0 - - - - - - -
02/04:30am 21.7 N 6 7 1013.2 - 0.0 - - - - - - -
02/04:00am 22.0 N 4 6 1013.1 - 0.0 - - - - - - -
02/03:30am 22.4 N 6 8 1013.1 - 0.0 - - - - - - -
02/03:00am 22.7 NNE 6 8 1013.1 - 0.0 - - - - - - -
02/02:30am 23.0 NNE 8 10 1013.3 - 0.0 - - - - - - -
02/02:00am 23.0 NNE 8 11 1013.3 - 0.0 - - - - - - -
02/01:30am 23.0 NNE 9 11 1013.4 - 0.0 - - - - - - -
02/01:00am 22.9 NNE 8 10 1013.6 - 0.0 - - - - - - -
02/12:30am 22.9 N 7 10 1013.7 - 0.0 - - - - - - -
02/12:00am 23.0 N 8 11 1013.9 - 0.0 - - - - - - -
 
Date/Time
CST
Temp

°C
Wind Pressure Rain
since 9am
mm
Weather Cloud Vis
km
Sea
Height
m
Swell
Dir
 
Speed
knots
Gust
knots
hPa Trend Height
m
Period
s
Dir
01/11:30pm 23.1 N 8 11 1014.0 - 0.0 - - - - - - -
01/11:00pm 23.2 N 7 9 1013.8 - 0.0 - - - - - - -
01/10:30pm 23.2 N 8 11 1013.8 - 0.0 - - - - - - -
01/10:00pm 23.4 N 8 11 1013.8 - 0.0 - - - - - - -
01/09:30pm 23.6 NNE 8 11 1013.7 - 0.0 - - - - - - -
01/09:00pm 23.6 N 7 9 1013.6 - 0.0 - - - - - - -
01/08:30pm 24.0 N 9 11 1013.3 - 0.0 - - - - - - -
01/08:00pm 24.2 NNE 9 10 1013.1 - 0.0 - - - - - - -
01/07:30pm 24.5 NNE 9 11 1012.6 - 0.0 - - - - - - -
01/07:00pm 24.7 NNE 8 11 1012.3 - 0.0 - - - - - - -
01/06:30pm 24.9 NNE 9 12 1012.0 - 0.0 - - - - - - -
01/06:00pm 25.5 NNE 10 13 1012.0 - 0.0 - - - - - - -
01/05:30pm 26.1 NNE 12 16 1011.9 - 0.0 - - - - - - -
01/05:00pm 27.4 NNE 11 14 1011.7 - 0.0 - - - - - - -
01/04:30pm 28.1 NNE 9 12 1011.7 - 0.0 - - - - - - -
01/04:00pm 28.6 N 10 13 1011.7 - 0.0 - - - - - - -
01/03:30pm 28.7 NNE 11 14 1011.8 - 0.0 - - - - - - -
01/03:00pm 28.8 NNE 13 17 1012.0 - 0.0 - - - - - - -
01/02:30pm 29.4 NNE 12 17 1012.3 - 0.0 - - - - - - -
01/02:00pm 30.1 NNE 12 17 1012.8 - 0.0 - - - - - - -
01/01:30pm 30.7 NE 8 11 1013.2 - 0.0 - - - - - - -
01/01:00pm 29.6 NE 6 8 1013.5 - 0.0 - - - - - - -
01/12:30pm 29.3 NE 5 7 1014.0 - 0.0 - - - - - - -
01/12:00pm 28.8 ENE 5 7 1014.3 - 0.0 - - - - - - -
01/11:30am 27.6 ESE 5 6 1014.8 - 0.0 - - - - - - -
01/11:00am 26.1 SSE 5 6 1015.3 - 0.0 - - - - - - -
01/10:30am 25.0 SSE 4 6 1015.6 - 0.0 - - - - - - -
01/10:00am 24.6 SSE 4 6 1015.9 - 0.0 - - - - - - -
01/09:30am 24.2 SSE 5 6 1015.8 - 0.0 - - - - - - -
01/09:00am 24.4 SE 5 5 1015.6 - 0.0 - - - - - - -
01/08:30am 24.0 ESE 6 7 1015.4 - 0.0 - - - - - - -
01/08:00am 23.4 ESE 7 9 1015.1 - 0.0 - - - - - - -
01/07:30am 22.2 SE 7 8 1014.9 - 0.0 - - - - - - -
01/07:00am 21.4 SSE 8 9 1014.7 - 0.0 - - - - - - -
01/06:30am 21.1 SE 9 11 1014.5 - 0.0 - - - - - - -
01/06:00am 21.1 SE 10 12 1014.1 - 0.0 - - - - - - -
01/05:30am 21.5 SE 10 11 1013.8 - 0.0 - - - - - - -
01/05:00am 22.1 ESE 7 8 1013.4 - 0.0 - - - - - - -
01/04:30am 21.2 ENE 2 5 1013.3 - 0.0 - - - - - - -
01/04:00am 21.4 ENE 4 5 1013.2 - 0.0 - - - - - - -
01/03:30am 21.6 ESE 5 5 1013.4 - 0.0 - - - - - - -
01/03:00am 22.0 SSE 5 6 1013.5 - 0.0 - - - - - - -
01/02:30am 21.6 ESE 5 6 1013.7 - 0.0 - - - - - - -
01/02:00am 21.2 N 3 4 1013.8 - 0.0 - - - - - - -
01/01:30am 20.7 CALM 0 0 1014.0 - 0.0 - - - - - - -
01/01:00am 20.9 CALM 0 0 1014.3 - 0.0 - - - - - - -
01/12:30am 20.8 CALM 0 0 1014.4 - 0.0 - - - - - - -
01/12:00am 20.6 NNW 3 3 1014.5 - 0.0 - - - - - - -
 
Date/Time
CST
Temp

°C
Wind Pressure Rain
since 9am
mm
Weather Cloud Vis
km
Sea
Height
m
Swell
Dir
 
Speed
knots
Gust
knots
hPa Trend Height
m
Period
s
Dir
31/11:30pm 20.9 NNW 4 5 1014.6 - 0.0 - - - - - - -
31/11:00pm 21.6 NNW 4 5 1014.6 - 0.0 - - - - - - -
31/10:30pm 23.5 NNE 7 9 1014.5 - 0.0 - - - - - - -
31/10:00pm 23.7 NNE 8 10 1014.5 - 0.0 - - - - - - -
31/09:30pm 23.9 NNE 8 10 1014.4 - 0.0 - - - - - - -
31/09:00pm 23.9 NE 9 11 1014.2 - 0.0 - - - - - - -
31/08:30pm 24.0 NE 9 10 1014.1 - 0.0 - - - - - - -
31/08:00pm 24.1 NE 9 11 1013.8 - 0.0 - - - - - - -
31/07:30pm 24.2 NE 8 11 1013.5 - 0.0 - - - - - - -
31/07:00pm 24.7 NE 9 11 1013.4 - 0.0 - - - - - - -
31/06:30pm 24.8 NNE 9 11 1013.2 - 0.0 - - - - - - -
31/06:00pm 25.3 NNE 9 11 1013.1 - 0.0 - - - - - - -
31/05:30pm 26.1 NNE 10 13 1013.0 - 0.0 - - - - - - -
31/05:00pm 26.8 NNE 11 14 1012.7 - 0.0 - - - - - - -
31/04:30pm 27.3 NNE 12 16 1012.8 - 0.0 - - - - - - -
31/04:00pm 28.1 NNE 10 15 1012.8 - 0.0 - - - - - - -
31/03:30pm 28.2 NE 10 13 1013.0 - 0.0 - - - - - - -
31/03:00pm 29.1 ENE 12 15 1013.5 - 0.0 - - - - - - -
31/02:30pm 29.8 E 13 16 1013.8 - 0.0 - - - - - - -
31/02:00pm 29.5 E 15 17 1014.1 - 0.0 - - - - - - -
31/01:30pm 29.4 ESE 13 15 1014.5 - 0.0 - - - - - - -
31/01:00pm 28.8 ESE 12 14 1014.8 - 0.0 - - - - - - -
31/12:30pm 29.0 ESE 13 15 1015.1 - 0.0 - - - - - - -
31/12:00pm 28.9 ESE 14 16 1015.6 - 0.0 - - - - - - -
31/11:30am 28.6 ESE 16 18 1016.0 - 0.0 - - - - - - -
31/11:00am 28.1 ESE 17 20 1016.5 - 0.0 - - - - - - -
31/10:30am 27.8 ESE 17 19 1016.9 - 0.0 - - - - - - -
31/10:00am 27.6 ESE 17 20 1017.0 - 0.0 - - - - - - -
31/09:30am 26.7 ESE 12 15 1017.0 - 0.0 - - - - - - -
31/09:00am 25.6 SE 10 12 1017.0 - 0.0 - - - - - - -
31/08:30am 25.4 SSE 13 15 1016.6 - 0.0 - - - - - - -
31/08:00am 24.7 SSE 11 13 1016.3 - 0.0 - - - - - - -
31/07:30am 23.9 S 9 11 1015.9 - 0.0 - - - - - - -
31/07:00am 23.0 SSW 9 11 1015.6 - 0.0 - - - - - - -
31/06:30am 23.3 SSW 10 13 1015.3 - 0.0 - - - - - - -
31/06:00am 23.8 S 8 10 1014.9 - 0.0 - - - - - - -
31/05:30am 23.8 S 9 10 1014.7 - 0.0 - - - - - - -
31/05:00am 23.1 SSW 5 7 1014.5 - 0.0 - - - - - - -
31/04:30am 22.9 SW 4 4 1014.5 - 0.0 - - - - - - -
31/04:00am 23.3 S 5 6 1014.6 - 0.0 - - - - - - -
31/03:30am 23.5 S 6 8 1014.4 - 0.0 - - - - - - -
31/03:00am 23.6 S 10 11 1014.7 - 0.0 - - - - - - -
31/02:30am 23.4 S 11 14 1015.0 - 0.0 - - - - - - -
31/02:00am 23.2 SSW 12 14 1015.3 - 0.0 - - - - - - -
31/01:30am 23.0 SSW 10 15 1015.5 - 0.0 - - - - - - -
31/01:00am 23.2 SSW 5 7 1015.4 - 0.0 - - - - - - -
31/12:30am 23.0 SE 4 5 1015.5 - 0.0 - - - - - - -
31/12:00am 23.1 ENE 5 6 1015.6 - 0.0 - - - - - - -
 
Date/Time
CST
Temp

°C
Wind Pressure Rain
since 9am
mm
Weather Cloud Vis
km
Sea
Height
m
Swell
Dir
 
Speed
knots
Gust
knots
hPa Trend Height
m
Period
s
Dir
30/11:30pm 23.3 E 5 6 1015.8 - 0.0 - - - - - - -
30/11:00pm 23.9 NE 6 7 1015.6 - 0.0 - - - - - - -
30/10:30pm 24.1 NNE 7 8 1015.4 - 0.0 - - - - - - -

Other Formats:

Comma delimited format used in spreadsheet applications
http://www.bom.gov.au/fwo/IDD60701/IDD60701.94248.axf

JavaScript Object Notation format (JSON) in row-major order
http://www.bom.gov.au/fwo/IDD60701/IDD60701.94248.json